sensor_id;sensor_type;location;lat;lon;timestamp;pressure;altitude;pressure_sealevel;temperature;humidity
78331;BME280;67594;53.854;-1.542;2023-02-26T00:01:39;100871.13;;;15.78;53.22
78331;BME280;67594;53.854;-1.542;2023-02-26T00:04:05;100872.28;;;15.75;52.92
78331;BME280;67594;53.854;-1.542;2023-02-26T00:06:33;100876.66;;;15.76;52.26
78331;BME280;67594;53.854;-1.542;2023-02-26T00:08:59;100874.25;;;15.73;52.39
78331;BME280;67594;53.854;-1.542;2023-02-26T00:11:24;100877.53;;;15.77;52.85
78331;BME280;67594;53.854;-1.542;2023-02-26T00:13:50;100879.19;;;15.78;53.23
78331;BME280;67594;53.854;-1.542;2023-02-26T00:16:28;100875.66;;;15.77;54.00
78331;BME280;67594;53.854;-1.542;2023-02-26T00:18:59;100874.66;;;15.78;53.59
78331;BME280;67594;53.854;-1.542;2023-02-26T00:21:26;100877.22;;;15.80;52.82
78331;BME280;67594;53.854;-1.542;2023-02-26T00:24:12;100875.38;;;15.80;52.06
78331;BME280;67594;53.854;-1.542;2023-02-26T00:26:37;100885.13;;;15.81;52.66
78331;BME280;67594;53.854;-1.542;2023-02-26T00:29:03;100883.16;;;15.83;52.95
78331;BME280;67594;53.854;-1.542;2023-02-26T00:31:29;100878.78;;;15.82;52.95
78331;BME280;67594;53.854;-1.542;2023-02-26T00:33:55;100875.25;;;15.82;52.43
78331;BME280;67594;53.854;-1.542;2023-02-26T00:41:47;100871.28;;;15.86;52.33
78331;BME280;67594;53.854;-1.542;2023-02-26T00:44:13;100879.34;;;15.86;53.31
78331;BME280;67594;53.854;-1.542;2023-02-26T00:46:48;100878.34;;;15.87;51.36
78331;BME280;67594;53.854;-1.542;2023-02-26T00:51:56;100879.19;;;15.87;52.69
78331;BME280;67594;53.854;-1.542;2023-02-26T00:54:24;100881.03;;;15.87;51.58
78331;BME280;67594;53.854;-1.542;2023-02-26T00:56:51;100882.03;;;15.86;51.80
78331;BME280;67594;53.854;-1.542;2023-02-26T00:59:17;100886.00;;;15.82;52.59
78331;BME280;67594;53.854;-1.542;2023-02-26T01:01:43;100879.91;;;15.80;52.15
78331;BME280;67594;53.854;-1.542;2023-02-26T01:04:10;100891.66;;;15.79;52.58
78331;BME280;67594;53.854;-1.542;2023-02-26T01:06:42;100891.50;;;15.80;52.33
78331;BME280;67594;53.854;-1.542;2023-02-26T01:11:43;100897.03;;;15.79;52.22
78331;BME280;67594;53.854;-1.542;2023-02-26T01:14:08;100906.06;;;15.78;52.53
78331;BME280;67594;53.854;-1.542;2023-02-26T01:16:43;100918.25;;;15.72;52.48
78331;BME280;67594;53.854;-1.542;2023-02-26T01:19:36;100906.53;;;15.73;52.16
78331;BME280;67594;53.854;-1.542;2023-02-26T01:28:29;100938.91;;;15.72;51.93
78331;BME280;67594;53.854;-1.542;2023-02-26T01:30:58;100920.25;;;15.70;51.51
78331;BME280;67594;53.854;-1.542;2023-02-26T01:33:40;100937.06;;;15.72;52.19
78331;BME280;67594;53.854;-1.542;2023-02-26T01:36:22;100929.16;;;15.71;52.94
78331;BME280;67594;53.854;-1.542;2023-02-26T01:41:46;100922.19;;;15.68;52.34
78331;BME280;67594;53.854;-1.542;2023-02-26T01:47:20;100935.91;;;15.65;51.69
78331;BME280;67594;53.854;-1.542;2023-02-26T01:49:48;100943.16;;;15.65;52.16
78331;BME280;67594;53.854;-1.542;2023-02-26T01:55:23;100943.69;;;15.68;53.93
78331;BME280;67594;53.854;-1.542;2023-02-26T01:57:51;100938.06;;;15.62;52.09
78331;BME280;67594;53.854;-1.542;2023-02-26T02:00:18;100947.81;;;15.63;51.64
78331;BME280;67594;53.854;-1.542;2023-02-26T02:02:44;100954.31;;;15.60;52.12
78331;BME280;67594;53.854;-1.542;2023-02-26T02:05:33;100949.63;;;15.62;52.82
78331;BME280;67594;53.854;-1.542;2023-02-26T02:07:59;100946.66;;;15.65;54.49
78331;BME280;67594;53.854;-1.542;2023-02-26T02:10:26;100949.34;;;15.65;54.56
78331;BME280;67594;53.854;-1.542;2023-02-26T02:12:58;100950.94;;;15.68;54.59
78331;BME280;67594;53.854;-1.542;2023-02-26T02:23:42;100957.31;;;15.86;49.59
78331;BME280;67594;53.854;-1.542;2023-02-26T02:31:35;100954.75;;;15.94;50.15
78331;BME280;67594;53.854;-1.542;2023-02-26T02:37:01;100961.69;;;15.96;49.50
78331;BME280;67594;53.854;-1.542;2023-02-26T02:39:33;100965.94;;;15.99;49.51
78331;BME280;67594;53.854;-1.542;2023-02-26T02:44:47;100961.97;;;16.03;49.33
78331;BME280;67594;53.854;-1.542;2023-02-26T02:47:14;100967.91;;;16.07;49.83
78331;BME280;67594;53.854;-1.542;2023-02-26T02:53:22;100969.47;;;16.09;49.26
78331;BME280;67594;53.854;-1.542;2023-02-26T02:56:00;100969.31;;;16.11;49.36
78331;BME280;67594;53.854;-1.542;2023-02-26T02:58:33;100973.03;;;16.10;49.32
78331;BME280;67594;53.854;-1.542;2023-02-26T03:01:05;100979.66;;;16.15;49.90
78331;BME280;67594;53.854;-1.542;2023-02-26T03:03:42;100981.22;;;16.18;49.99
78331;BME280;67594;53.854;-1.542;2023-02-26T03:06:09;100987.28;;;16.20;50.17
78331;BME280;67594;53.854;-1.542;2023-02-26T03:08:37;100986.44;;;16.19;48.91
78331;BME280;67594;53.854;-1.542;2023-02-26T03:11:03;100986.44;;;16.19;49.35
78331;BME280;67594;53.854;-1.542;2023-02-26T03:13:29;100980.78;;;16.22;49.25
78331;BME280;67594;53.854;-1.542;2023-02-26T03:16:18;100981.50;;;16.24;49.17
78331;BME280;67594;53.854;-1.542;2023-02-26T03:21:47;100988.25;;;16.28;49.50
78331;BME280;67594;53.854;-1.542;2023-02-26T03:26:58;100974.97;;;16.36;48.76
78331;BME280;67594;53.854;-1.542;2023-02-26T03:29:46;100974.69;;;16.39;49.09
78331;BME280;67594;53.854;-1.542;2023-02-26T03:32:20;100976.50;;;16.39;48.98
78331;BME280;67594;53.854;-1.542;2023-02-26T03:34:58;100985.28;;;16.41;49.41
78331;BME280;67594;53.854;-1.542;2023-02-26T03:37:34;100990.94;;;16.47;49.13
78331;BME280;67594;53.854;-1.542;2023-02-26T03:40:07;100983.84;;;16.46;49.41
78331;BME280;67594;53.854;-1.542;2023-02-26T03:42:45;100990.94;;;16.47;48.85
78331;BME280;67594;53.854;-1.542;2023-02-26T03:45:16;100978.03;;;16.51;48.88
78331;BME280;67594;53.854;-1.542;2023-02-26T03:47:46;100981.59;;;16.51;48.12
78331;BME280;67594;53.854;-1.542;2023-02-26T03:50:23;100984.97;;;16.53;48.52
78331;BME280;67594;53.854;-1.542;2023-02-26T03:52:52;100997.19;;;16.58;48.66
78331;BME280;67594;53.854;-1.542;2023-02-26T03:55:33;100997.31;;;16.56;48.11
78331;BME280;67594;53.854;-1.542;2023-02-26T03:58:00;100999.88;;;16.58;48.53
78331;BME280;67594;53.854;-1.542;2023-02-26T04:00:27;101000.19;;;16.55;49.00
78331;BME280;67594;53.854;-1.542;2023-02-26T04:03:06;101003.13;;;16.51;48.79
78331;BME280;67594;53.854;-1.542;2023-02-26T04:05:37;101009.94;;;16.56;47.88
78331;BME280;67594;53.854;-1.542;2023-02-26T04:08:04;101015.47;;;16.54;48.38
78331;BME280;67594;53.854;-1.542;2023-02-26T04:10:40;101016.41;;;16.53;47.58
78331;BME280;67594;53.854;-1.542;2023-02-26T04:13:06;101023.94;;;16.49;48.14
78331;BME280;67594;53.854;-1.542;2023-02-26T04:15:32;101027.34;;;16.51;48.24
78331;BME280;67594;53.854;-1.542;2023-02-26T04:17:57;101030.72;;;16.53;47.78
78331;BME280;67594;53.854;-1.542;2023-02-26T04:20:23;101030.72;;;16.53;48.20
78331;BME280;67594;53.854;-1.542;2023-02-26T04:22:48;101033.88;;;16.59;47.89
78331;BME280;67594;53.854;-1.542;2023-02-26T04:25:13;101039.81;;;16.62;48.65
78331;BME280;67594;53.854;-1.542;2023-02-26T04:27:39;101044.50;;;16.60;48.02
78331;BME280;67594;53.854;-1.542;2023-02-26T04:30:04;101054.13;;;16.63;48.50
78331;BME280;67594;53.854;-1.542;2023-02-26T04:32:30;101046.47;;;16.68;47.51
78331;BME280;67594;53.854;-1.542;2023-02-26T04:34:55;101047.47;;;16.67;47.51
78331;BME280;67594;53.854;-1.542;2023-02-26T04:37:20;101049.88;;;16.70;47.42
78331;BME280;67594;53.854;-1.542;2023-02-26T04:39:46;101049.88;;;16.70;47.43
78331;BME280;67594;53.854;-1.542;2023-02-26T04:42:11;101046.91;;;16.73;47.13
78331;BME280;67594;53.854;-1.542;2023-02-26T04:44:36;101048.72;;;16.72;47.48
78331;BME280;67594;53.854;-1.542;2023-02-26T04:47:02;101047.28;;;16.78;46.89
78331;BME280;67594;53.854;-1.542;2023-02-26T04:49:27;101056.06;;;16.80;46.54
78331;BME280;67594;53.854;-1.542;2023-02-26T04:51:52;101064.03;;;16.81;46.79
78331;BME280;67594;53.854;-1.542;2023-02-26T04:54:18;101064.59;;;16.85;46.93
78331;BME280;67594;53.854;-1.542;2023-02-26T04:56:43;101063.72;;;16.84;46.28
78331;BME280;67594;53.854;-1.542;2023-02-26T04:59:08;101064.53;;;16.94;47.69
78331;BME280;67594;53.854;-1.542;2023-02-26T05:01:34;101069.09;;;16.94;48.70
78331;BME280;67594;53.854;-1.542;2023-02-26T05:03:59;101065.13;;;16.88;48.18
78331;BME280;67594;53.854;-1.542;2023-02-26T05:06:24;101069.97;;;16.85;48.06
78331;BME280;67594;53.854;-1.542;2023-02-26T05:08:50;101072.38;;;16.78;48.48
78331;BME280;67594;53.854;-1.542;2023-02-26T05:11:15;101069.13;;;16.75;47.98
78331;BME280;67594;53.854;-1.542;2023-02-26T05:13:40;101070.97;;;16.74;48.86
78331;BME280;67594;53.854;-1.542;2023-02-26T05:16:06;101072.81;;;16.74;48.08
78331;BME280;67594;53.854;-1.542;2023-02-26T05:18:31;101070.41;;;16.71;49.04
78331;BME280;67594;53.854;-1.542;2023-02-26T05:20:57;101078.34;;;16.72;48.79
78331;BME280;67594;53.854;-1.542;2023-02-26T05:23:22;101075.94;;;16.69;49.33
78331;BME280;67594;53.854;-1.542;2023-02-26T05:25:47;101073.38;;;16.68;49.78
78331;BME280;67594;53.854;-1.542;2023-02-26T05:28:13;101079.91;;;16.65;49.21
78331;BME280;67594;53.854;-1.542;2023-02-26T05:30:39;101086.31;;;16.64;49.24
78331;BME280;67594;53.854;-1.542;2023-02-26T05:33:04;101085.56;;;16.62;48.96
78331;BME280;67594;53.854;-1.542;2023-02-26T05:35:30;101080.91;;;16.64;49.36
78331;BME280;67594;53.854;-1.542;2023-02-26T05:37:55;101087.28;;;16.63;50.16
78331;BME280;67594;53.854;-1.542;2023-02-26T05:40:20;101089.97;;;16.63;49.44
78331;BME280;67594;53.854;-1.542;2023-02-26T05:42:46;101092.50;;;16.65;49.05
78331;BME280;67594;53.854;-1.542;2023-02-26T05:45:11;101090.97;;;16.62;49.47
78331;BME280;67594;53.854;-1.542;2023-02-26T05:47:36;101100.06;;;16.61;49.75
78331;BME280;67594;53.854;-1.542;2023-02-26T05:50:03;101094.78;;;16.60;48.80
78331;BME280;67594;53.854;-1.542;2023-02-26T05:52:29;101106.41;;;16.60;48.50
78331;BME280;67594;53.854;-1.542;2023-02-26T05:54:54;101108.94;;;16.62;48.81
78331;BME280;67594;53.854;-1.542;2023-02-26T05:57:19;101108.81;;;16.63;49.57
78331;BME280;67594;53.854;-1.542;2023-02-26T05:59:45;101105.44;;;16.61;49.24
78331;BME280;67594;53.854;-1.542;2023-02-26T06:02:10;101110.94;;;16.60;49.09
78331;BME280;67594;53.854;-1.542;2023-02-26T06:04:35;101111.09;;;16.58;48.96
78331;BME280;67594;53.854;-1.542;2023-02-26T06:07:01;101118.16;;;16.59;49.05
78331;BME280;67594;53.854;-1.542;2023-02-26T06:09:26;101125.53;;;16.57;49.45
78331;BME280;67594;53.854;-1.542;2023-02-26T06:11:52;101122.84;;;16.57;48.78
78331;BME280;67594;53.854;-1.542;2023-02-26T06:14:17;101120.00;;;16.59;48.52
78331;BME280;67594;53.854;-1.542;2023-02-26T06:16:42;101120.16;;;16.57;49.43
78331;BME280;67594;53.854;-1.542;2023-02-26T06:19:08;101118.59;;;16.55;49.07
78331;BME280;67594;53.854;-1.542;2023-02-26T06:21:33;101129.47;;;16.53;48.87
78331;BME280;67594;53.854;-1.542;2023-02-26T06:23:58;101133.00;;;16.53;48.55
78331;BME280;67594;53.854;-1.542;2023-02-26T06:26:23;101138.69;;;16.50;49.08
78331;BME280;67594;53.854;-1.542;2023-02-26T06:28:49;101143.09;;;16.51;48.61
78331;BME280;67594;53.854;-1.542;2023-02-26T06:31:14;101152.00;;;16.52;48.46
78331;BME280;67594;53.854;-1.542;2023-02-26T06:33:39;101151.00;;;16.53;48.82
78331;BME280;67594;53.854;-1.542;2023-02-26T06:36:05;101152.13;;;16.50;48.75
78331;BME280;67594;53.854;-1.542;2023-02-26T06:38:30;101147.63;;;16.89;46.93
78331;BME280;67594;53.854;-1.542;2023-02-26T06:40:56;101155.13;;;17.05;45.14
78331;BME280;67594;53.854;-1.542;2023-02-26T06:43:21;101159.63;;;17.14;44.53
78331;BME280;67594;53.854;-1.542;2023-02-26T06:45:47;101158.31;;;17.28;43.57
78331;BME280;67594;53.854;-1.542;2023-02-26T06:48:12;101153.19;;;17.34;43.48
78331;BME280;67594;53.854;-1.542;2023-02-26T06:50:37;101152.22;;;17.35;42.83
78331;BME280;67594;53.854;-1.542;2023-02-26T06:53:03;101159.25;;;17.46;42.52
78331;BME280;67594;53.854;-1.542;2023-02-26T06:55:28;101158.28;;;17.47;42.11
78331;BME280;67594;53.854;-1.542;2023-02-26T06:57:54;101161.22;;;17.53;42.09
78331;BME280;67594;53.854;-1.542;2023-02-26T07:00:20;101170.75;;;17.57;41.53
78331;BME280;67594;53.854;-1.542;2023-02-26T07:02:46;101162.06;;;17.63;41.60
78331;BME280;67594;53.854;-1.542;2023-02-26T07:05:11;101153.97;;;17.63;41.97
78331;BME280;67594;53.854;-1.542;2023-02-26T07:07:36;101165.31;;;17.67;42.02
78331;BME280;67594;53.854;-1.542;2023-02-26T07:10:03;101169.84;;;17.67;41.75
78331;BME280;67594;53.854;-1.542;2023-02-26T07:12:28;101172.13;;;17.71;40.89
78331;BME280;67594;53.854;-1.542;2023-02-26T07:14:53;101173.97;;;17.71;41.08
78331;BME280;67594;53.854;-1.542;2023-02-26T07:17:19;101184.16;;;17.77;40.63
78331;BME280;67594;53.854;-1.542;2023-02-26T07:19:49;101185.16;;;17.76;39.88
78331;BME280;67594;53.854;-1.542;2023-02-26T07:22:15;101184.03;;;17.78;39.96
78331;BME280;67594;53.854;-1.542;2023-02-26T07:24:41;101183.16;;;17.78;39.83
78331;BME280;67594;53.854;-1.542;2023-02-26T07:27:07;101192.94;;;17.79;39.74
78331;BME280;67594;53.854;-1.542;2023-02-26T07:29:32;101197.50;;;17.78;38.90
78331;BME280;67594;53.854;-1.542;2023-02-26T07:31:58;101195.22;;;17.83;39.45
78331;BME280;67594;53.854;-1.542;2023-02-26T07:34:23;101206.00;;;17.83;39.18
78331;BME280;67594;53.854;-1.542;2023-02-26T07:36:48;101206.13;;;17.82;38.66
78331;BME280;67594;53.854;-1.542;2023-02-26T07:39:13;101203.00;;;17.86;37.78
78331;BME280;67594;53.854;-1.542;2023-02-26T07:41:39;101207.13;;;17.90;37.30
78331;BME280;67594;53.854;-1.542;2023-02-26T07:44:04;101207.63;;;17.94;37.36
78331;BME280;67594;53.854;-1.542;2023-02-26T07:46:29;101213.75;;;17.96;36.89
78331;BME280;67594;53.854;-1.542;2023-02-26T07:48:55;101218.31;;;17.95;37.09
78331;BME280;67594;53.854;-1.542;2023-02-26T07:51:20;101204.34;;;18.00;38.93
78331;BME280;67594;53.854;-1.542;2023-02-26T07:53:45;101209.59;;;18.01;37.52
78331;BME280;67594;53.854;-1.542;2023-02-26T07:56:11;101214.44;;;17.98;37.94
78331;BME280;67594;53.854;-1.542;2023-02-26T07:58:36;101208.91;;;17.99;37.08
78331;BME280;67594;53.854;-1.542;2023-02-26T08:01:01;101221.84;;;17.96;36.43
78331;BME280;67594;53.854;-1.542;2023-02-26T08:03:27;101222.16;;;17.93;36.85
78331;BME280;67594;53.854;-1.542;2023-02-26T08:05:52;101228.41;;;17.93;36.85
78331;BME280;67594;53.854;-1.542;2023-02-26T08:08:17;101230.84;;;17.87;38.43
78331;BME280;67594;53.854;-1.542;2023-02-26T08:10:43;101233.81;;;17.84;38.36
78331;BME280;67594;53.854;-1.542;2023-02-26T08:13:08;101236.81;;;17.81;38.04
78331;BME280;67594;53.854;-1.542;2023-02-26T08:15:34;101240.50;;;17.80;37.94
78331;BME280;67594;53.854;-1.542;2023-02-26T08:17:59;101246.19;;;17.77;37.98
78331;BME280;67594;53.854;-1.542;2023-02-26T08:20:24;101245.59;;;17.83;39.31
78331;BME280;67594;53.854;-1.542;2023-02-26T08:22:50;101245.59;;;17.83;38.68
78331;BME280;67594;53.854;-1.542;2023-02-26T08:25:15;101247.31;;;17.84;38.27
78331;BME280;67594;53.854;-1.542;2023-02-26T08:27:41;101243.75;;;17.83;38.04
78331;BME280;67594;53.854;-1.542;2023-02-26T08:30:07;101247.00;;;17.87;37.22
78331;BME280;67594;53.854;-1.542;2023-02-26T08:32:33;101246.72;;;17.90;37.18
78331;BME280;67594;53.854;-1.542;2023-02-26T08:34:58;101253.94;;;17.99;36.55
78331;BME280;67594;53.854;-1.542;2023-02-26T08:37:24;101257.72;;;18.06;36.82
78331;BME280;67594;53.854;-1.542;2023-02-26T08:39:50;101262.53;;;18.12;36.94
78331;BME280;67594;53.854;-1.542;2023-02-26T08:42:15;101268.72;;;18.22;37.12
78331;BME280;67594;53.854;-1.542;2023-02-26T08:44:42;101273.66;;;18.27;36.77
78331;BME280;67594;53.854;-1.542;2023-02-26T08:47:07;101274.09;;;18.32;37.11
78331;BME280;67594;53.854;-1.542;2023-02-26T08:49:32;101289.81;;;18.36;36.89
78331;BME280;67594;53.854;-1.542;2023-02-26T08:51:58;101293.94;;;18.40;37.01
78331;BME280;67594;53.854;-1.542;2023-02-26T08:54:24;101287.66;;;18.49;37.91
78331;BME280;67594;53.854;-1.542;2023-02-26T08:56:49;101285.78;;;18.59;36.43
78331;BME280;67594;53.854;-1.542;2023-02-26T08:59:15;101290.25;;;18.68;36.01
78331;BME280;67594;53.854;-1.542;2023-02-26T09:01:40;101285.25;;;18.74;36.24
78331;BME280;67594;53.854;-1.542;2023-02-26T09:04:05;101290.03;;;18.80;36.49
78331;BME280;67594;53.854;-1.542;2023-02-26T09:06:31;101289.44;;;18.86;35.47
78331;BME280;67594;53.854;-1.542;2023-02-26T09:08:56;101297.63;;;18.94;35.57
78331;BME280;67594;53.854;-1.542;2023-02-26T09:11:21;101299.25;;;19.04;35.70
78331;BME280;67594;53.854;-1.542;2023-02-26T09:13:47;101294.00;;;19.03;35.64
78331;BME280;67594;53.854;-1.542;2023-02-26T09:16:12;101299.88;;;19.16;36.74
78331;BME280;67594;53.854;-1.542;2023-02-26T09:18:37;101308.22;;;19.22;35.54
78331;BME280;67594;53.854;-1.542;2023-02-26T09:21:03;101308.09;;;19.32;35.88
78331;BME280;67594;53.854;-1.542;2023-02-26T09:23:28;101311.31;;;19.45;35.92
78331;BME280;67594;53.854;-1.542;2023-02-26T09:25:55;101314.81;;;19.81;35.37
78331;BME280;67594;53.854;-1.542;2023-02-26T09:28:22;101304.28;;;20.29;34.07
78331;BME280;67594;53.854;-1.542;2023-02-26T09:30:51;101306.97;;;20.63;34.21
78331;BME280;67594;53.854;-1.542;2023-02-26T09:33:16;101307.31;;;21.42;33.55
78331;BME280;67594;53.854;-1.542;2023-02-26T09:35:42;101307.47;;;21.73;31.21
78331;BME280;67594;53.854;-1.542;2023-02-26T09:38:07;101310.03;;;21.59;31.52
78331;BME280;67594;53.854;-1.542;2023-02-26T09:41:35;101313.41;;;21.36;32.79
78331;BME280;67594;53.854;-1.542;2023-02-26T09:49:29;101320.81;;;20.52;34.60
78331;BME280;67594;53.854;-1.542;2023-02-26T09:52:06;101327.69;;;20.39;35.55
78331;BME280;67594;53.854;-1.542;2023-02-26T09:54:42;101329.03;;;20.34;35.54
78331;BME280;67594;53.854;-1.542;2023-02-26T09:57:11;101329.53;;;20.30;35.65
78331;BME280;67594;53.854;-1.542;2023-02-26T09:59:39;101335.94;;;20.29;36.39
78331;BME280;67594;53.854;-1.542;2023-02-26T10:02:23;101333.56;;;20.26;35.67
78331;BME280;67594;53.854;-1.542;2023-02-26T10:10:32;101348.66;;;20.11;36.53
78331;BME280;67594;53.854;-1.542;2023-02-26T10:12:59;101361.09;;;20.21;35.43
78331;BME280;67594;53.854;-1.542;2023-02-26T10:15:38;101365.66;;;20.21;36.71
78331;BME280;67594;53.854;-1.542;2023-02-26T10:18:12;101374.88;;;20.10;35.92
78331;BME280;67594;53.854;-1.542;2023-02-26T10:20:58;101375.69;;;20.03;35.88
78331;BME280;67594;53.854;-1.542;2023-02-26T10:23:35;101370.53;;;19.92;36.79
78331;BME280;67594;53.854;-1.542;2023-02-26T10:34:35;101376.16;;;20.24;37.32
78331;BME280;67594;53.854;-1.542;2023-02-26T10:39:41;101374.31;;;20.50;34.77
78331;BME280;67594;53.854;-1.542;2023-02-26T10:42:27;101387.41;;;20.63;34.73
78331;BME280;67594;53.854;-1.542;2023-02-26T10:50:59;101379.72;;;20.84;35.40
78331;BME280;67594;53.854;-1.542;2023-02-26T10:53:30;101375.00;;;20.94;35.20
78331;BME280;67594;53.854;-1.542;2023-02-26T10:56:12;101385.25;;;21.16;34.65
78331;BME280;67594;53.854;-1.542;2023-02-26T10:58:39;101382.22;;;21.19;34.90
78331;BME280;67594;53.854;-1.542;2023-02-26T11:01:20;101382.75;;;21.31;34.29
78331;BME280;67594;53.854;-1.542;2023-02-26T11:03:48;101382.09;;;21.45;33.92
78331;BME280;67594;53.854;-1.542;2023-02-26T11:06:23;101374.97;;;21.52;34.36
78331;BME280;67594;53.854;-1.542;2023-02-26T11:08:54;101379.75;;;21.50;33.83
78331;BME280;67594;53.854;-1.542;2023-02-26T11:14:03;101379.75;;;21.58;34.43
78331;BME280;67594;53.854;-1.542;2023-02-26T11:16:29;101385.13;;;21.42;33.65
78331;BME280;67594;53.854;-1.542;2023-02-26T11:18:57;101383.78;;;21.38;34.02
78331;BME280;67594;53.854;-1.542;2023-02-26T11:21:27;101389.03;;;21.31;32.93
78331;BME280;67594;53.854;-1.542;2023-02-26T11:26:49;101395.53;;;21.05;33.33
78331;BME280;67594;53.854;-1.542;2023-02-26T11:29:19;101402.50;;;21.07;33.61
78331;BME280;67594;53.854;-1.542;2023-02-26T11:31:50;101402.19;;;21.10;33.87
78331;BME280;67594;53.854;-1.542;2023-02-26T11:34:21;101404.13;;;20.92;33.79
78331;BME280;67594;53.854;-1.542;2023-02-26T11:36:47;101407.28;;;20.71;32.30
78331;BME280;67594;53.854;-1.542;2023-02-26T11:39:20;101414.50;;;20.37;32.08
78331;BME280;67594;53.854;-1.542;2023-02-26T11:41:48;101412.09;;;20.52;33.69
78331;BME280;67594;53.854;-1.542;2023-02-26T11:44:20;101416.09;;;20.40;34.09
78331;BME280;67594;53.854;-1.542;2023-02-26T11:46:55;101408.75;;;20.14;33.32
78331;BME280;67594;53.854;-1.542;2023-02-26T11:49:25;101407.75;;;20.15;35.50
78331;BME280;67594;53.854;-1.542;2023-02-26T11:54:44;101422.47;;;19.95;33.88
78331;BME280;67594;53.854;-1.542;2023-02-26T11:57:19;101418.25;;;19.57;31.77
78331;BME280;67594;53.854;-1.542;2023-02-26T11:59:49;101421.88;;;19.66;35.32
78331;BME280;67594;53.854;-1.542;2023-02-26T12:02:19;101424.75;;;19.64;35.24
78331;BME280;67594;53.854;-1.542;2023-02-26T12:04:47;101424.03;;;19.62;35.19
78331;BME280;67594;53.854;-1.542;2023-02-26T12:07:15;101423.19;;;19.44;34.27
78331;BME280;67594;53.854;-1.542;2023-02-26T12:09:42;101421.41;;;19.53;35.16
78331;BME280;67594;53.854;-1.542;2023-02-26T12:12:18;101431.31;;;19.44;34.31
78331;BME280;67594;53.854;-1.542;2023-02-26T12:20:17;101434.19;;;19.33;35.44
78331;BME280;67594;53.854;-1.542;2023-02-26T12:31:42;101436.63;;;19.09;35.30
78331;BME280;67594;53.854;-1.542;2023-02-26T12:58:59;101435.91;;;19.34;35.61
78331;BME280;67594;53.854;-1.542;2023-02-26T13:19:55;101457.97;;;18.75;36.59
78331;BME280;67594;53.854;-1.542;2023-02-26T13:27:50;101450.22;;;18.90;36.68
78331;BME280;67594;53.854;-1.542;2023-02-26T13:30:33;101458.03;;;18.93;37.03
78331;BME280;67594;53.854;-1.542;2023-02-26T13:33:00;101450.94;;;18.92;37.14
78331;BME280;67594;53.854;-1.542;2023-02-26T13:35:33;101452.22;;;18.88;37.38
78331;BME280;67594;53.854;-1.542;2023-02-26T13:38:13;101453.94;;;18.89;37.11
78331;BME280;67594;53.854;-1.542;2023-02-26T13:40:59;101450.69;;;18.85;37.80
78331;BME280;67594;53.854;-1.542;2023-02-26T13:49:23;101468.84;;;18.65;38.99
78331;BME280;67594;53.854;-1.542;2023-02-26T13:51:52;101470.28;;;18.31;38.25
78331;BME280;67594;53.854;-1.542;2023-02-26T14:01:55;101462.31;;;18.95;42.34
78331;BME280;67594;53.854;-1.542;2023-02-26T14:04:25;101454.13;;;19.05;41.87
78331;BME280;67594;53.854;-1.542;2023-02-26T14:06:57;101455.41;;;19.10;42.53
78331;BME280;67594;53.854;-1.542;2023-02-26T14:22:33;101447.22;;;18.93;40.29
78331;BME280;67594;53.854;-1.542;2023-02-26T14:25:20;101453.53;;;18.84;40.10
78331;BME280;67594;53.854;-1.542;2023-02-26T14:28:19;101457.25;;;18.83;40.86
78331;BME280;67594;53.854;-1.542;2023-02-26T14:30:51;101464.50;;;18.82;40.97
78331;BME280;67594;53.854;-1.542;2023-02-26T14:33:18;101456.94;;;18.49;38.55
78331;BME280;67594;53.854;-1.542;2023-02-26T14:35:47;101455.75;;;18.42;39.66
78331;BME280;67594;53.854;-1.542;2023-02-26T14:38:29;101463.47;;;18.27;38.62
78331;BME280;67594;53.854;-1.542;2023-02-26T14:41:13;101471.84;;;18.43;41.22
78331;BME280;67594;53.854;-1.542;2023-02-26T14:43:49;101476.94;;;18.46;41.15
78331;BME280;67594;53.854;-1.542;2023-02-26T14:46:17;101467.91;;;18.18;37.90
78331;BME280;67594;53.854;-1.542;2023-02-26T14:48:43;101469.34;;;17.94;35.46
78331;BME280;67594;53.854;-1.542;2023-02-26T14:51:41;101472.19;;;17.83;38.07
78331;BME280;67594;53.854;-1.542;2023-02-26T14:57:13;101472.75;;;17.96;39.93
78331;BME280;67594;53.854;-1.542;2023-02-26T15:02:48;101467.31;;;18.15;41.29
78331;BME280;67594;53.854;-1.542;2023-02-26T15:05:31;101468.19;;;18.15;41.18
78331;BME280;67594;53.854;-1.542;2023-02-26T15:13:49;101467.91;;;18.18;41.19
78331;BME280;67594;53.854;-1.542;2023-02-26T15:19:20;101468.19;;;18.06;41.42
78331;BME280;67594;53.854;-1.542;2023-02-26T15:24:39;101476.03;;;17.99;41.42
78331;BME280;67594;53.854;-1.542;2023-02-26T15:27:06;101472.59;;;17.88;40.97
78331;BME280;67594;53.854;-1.542;2023-02-26T15:29:37;101478.56;;;17.91;40.88
78331;BME280;67594;53.854;-1.542;2023-02-26T15:32:24;101475.88;;;18.01;41.80
78331;BME280;67594;53.854;-1.542;2023-02-26T15:35:18;101483.28;;;17.99;40.99
78331;BME280;67594;53.854;-1.542;2023-02-26T15:37:53;101478.44;;;17.93;40.88
78331;BME280;67594;53.854;-1.542;2023-02-26T15:40:19;101478.00;;;17.88;40.64
78331;BME280;67594;53.854;-1.542;2023-02-26T15:42:48;101476.59;;;17.84;41.02
78331;BME280;67594;53.854;-1.542;2023-02-26T15:45:38;101478.28;;;17.85;41.28
78331;BME280;67594;53.854;-1.542;2023-02-26T15:48:07;101476.44;;;17.85;41.11
78331;BME280;67594;53.854;-1.542;2023-02-26T15:50:37;101475.16;;;17.80;41.98
78331;BME280;67594;53.854;-1.542;2023-02-26T15:53:05;101483.81;;;17.83;42.65
78331;BME280;67594;53.854;-1.542;2023-02-26T15:55:38;101478.56;;;17.82;42.42
78331;BME280;67594;53.854;-1.542;2023-02-26T15:58:07;101484.13;;;17.80;42.85
78331;BME280;67594;53.854;-1.542;2023-02-26T16:00:35;101479.53;;;17.61;41.95
78331;BME280;67594;53.854;-1.542;2023-02-26T16:03:01;101501.34;;;17.39;42.40
78331;BME280;67594;53.854;-1.542;2023-02-26T16:05:28;101499.69;;;17.67;43.10
78331;BME280;67594;53.854;-1.542;2023-02-26T16:07:54;101497.75;;;17.69;41.50
78331;BME280;67594;53.854;-1.542;2023-02-26T16:10:35;101498.69;;;17.58;42.34